sensor_id;sensor_type;location;lat;lon;timestamp;P1;durP1;ratioP1;P2;durP2;ratioP2
30337;SDS011;17143;51.888;5.408;2022-08-07T00:14:22;4.27;;;1.87;;
30337;SDS011;17143;51.888;5.408;2022-08-07T00:29:24;3.23;;;2.00;;
30337;SDS011;17143;51.888;5.408;2022-08-07T00:44:26;4.93;;;1.90;;
30337;SDS011;17143;51.888;5.408;2022-08-07T00:59:28;4.23;;;2.20;;
30337;SDS011;17143;51.888;5.408;2022-08-07T01:14:30;4.50;;;2.30;;
30337;SDS011;17143;51.888;5.408;2022-08-07T01:29:33;3.00;;;2.70;;
30337;SDS011;17143;51.888;5.408;2022-08-07T01:44:35;2.70;;;2.40;;
30337;SDS011;17143;51.888;5.408;2022-08-07T01:59:41;3.17;;;2.40;;
30337;SDS011;17143;51.888;5.408;2022-08-07T02:14:47;3.00;;;2.63;;
30337;SDS011;17143;51.888;5.408;2022-08-07T02:29:59;3.00;;;2.67;;
30337;SDS011;17143;51.888;5.408;2022-08-07T02:45:09;2.83;;;2.57;;
30337;SDS011;17143;51.888;5.408;2022-08-07T03:00:14;3.43;;;3.07;;
30337;SDS011;17143;51.888;5.408;2022-08-07T03:15:17;4.07;;;3.13;;
30337;SDS011;17143;51.888;5.408;2022-08-07T03:30:21;4.93;;;3.27;;
30337;SDS011;17143;51.888;5.408;2022-08-07T03:45:26;4.97;;;3.60;;
30337;SDS011;17143;51.888;5.408;2022-08-07T04:00:32;5.37;;;3.67;;
30337;SDS011;17143;51.888;5.408;2022-08-07T04:15:36;5.23;;;3.73;;
30337;SDS011;17143;51.888;5.408;2022-08-07T04:30:39;7.23;;;3.87;;
30337;SDS011;17143;51.888;5.408;2022-08-07T04:45:54;4.60;;;3.70;;
30337;SDS011;17143;51.888;5.408;2022-08-07T05:01:06;7.43;;;3.87;;
30337;SDS011;17143;51.888;5.408;2022-08-07T05:16:15;4.13;;;2.87;;
30337;SDS011;17143;51.888;5.408;2022-08-07T05:31:19;5.73;;;3.33;;
30337;SDS011;17143;51.888;5.408;2022-08-07T05:46:23;4.70;;;3.30;;
30337;SDS011;17143;51.888;5.408;2022-08-07T06:01:26;4.00;;;3.10;;
30337;SDS011;17143;51.888;5.408;2022-08-07T06:16:32;4.53;;;3.67;;
30337;SDS011;17143;51.888;5.408;2022-08-07T06:31:37;5.40;;;3.90;;
30337;SDS011;17143;51.888;5.408;2022-08-07T06:46:39;5.70;;;4.60;;
30337;SDS011;17143;51.888;5.408;2022-08-07T07:01:42;6.93;;;5.13;;
30337;SDS011;17143;51.888;5.408;2022-08-07T07:16:45;7.83;;;3.77;;
30337;SDS011;17143;51.888;5.408;2022-08-07T07:31:51;6.13;;;4.00;;
30337;SDS011;17143;51.888;5.408;2022-08-07T07:46:55;5.57;;;3.10;;
30337;SDS011;17143;51.888;5.408;2022-08-07T08:01:59;4.93;;;3.23;;
30337;SDS011;17143;51.888;5.408;2022-08-07T08:17:06;3.40;;;2.93;;
30337;SDS011;17143;51.888;5.408;2022-08-07T08:32:10;5.80;;;3.03;;
30337;SDS011;17143;51.888;5.408;2022-08-07T08:47:20;2.97;;;2.60;;
30337;SDS011;17143;51.888;5.408;2022-08-07T09:02:28;3.13;;;2.30;;
30337;SDS011;17143;51.888;5.408;2022-08-07T09:17:39;4.70;;;2.43;;
30337;SDS011;17143;51.888;5.408;2022-08-07T09:32:54;2.83;;;2.13;;
30337;SDS011;17143;51.888;5.408;2022-08-07T09:48:12;2.53;;;1.90;;
30337;SDS011;17143;51.888;5.408;2022-08-07T10:34:32;2.83;;;1.93;;
30337;SDS011;17143;51.888;5.408;2022-08-07T10:49:45;2.23;;;1.50;;
30337;SDS011;17143;51.888;5.408;2022-08-07T11:04:54;5.57;;;1.63;;
30337;SDS011;17143;51.888;5.408;2022-08-07T11:20:07;1.83;;;1.60;;
30337;SDS011;17143;51.888;5.408;2022-08-07T11:35:16;1.57;;;1.47;;
30337;SDS011;17143;51.888;5.408;2022-08-07T11:50:25;2.20;;;1.50;;
30337;SDS011;17143;51.888;5.408;2022-08-07T12:05:37;2.63;;;1.00;;
30337;SDS011;17143;51.888;5.408;2022-08-07T12:20:47;1.40;;;1.27;;
30337;SDS011;17143;51.888;5.408;2022-08-07T12:35:56;1.67;;;1.33;;
30337;SDS011;17143;51.888;5.408;2022-08-07T12:51:00;3.20;;;1.30;;
30337;SDS011;17143;51.888;5.408;2022-08-07T13:06:13;2.13;;;1.27;;
30337;SDS011;17143;51.888;5.408;2022-08-07T13:21:28;1.83;;;1.20;;
30337;SDS011;17143;51.888;5.408;2022-08-07T13:36:36;2.13;;;1.30;;
30337;SDS011;17143;51.888;5.408;2022-08-07T13:51:42;1.50;;;1.40;;
30337;SDS011;17143;51.888;5.408;2022-08-07T14:06:47;1.43;;;1.10;;
30337;SDS011;17143;51.888;5.408;2022-08-07T14:21:50;2.47;;;1.10;;
30337;SDS011;17143;51.888;5.408;2022-08-07T14:36:54;1.50;;;1.40;;
30337;SDS011;17143;51.888;5.408;2022-08-07T14:51:57;1.53;;;1.43;;
30337;SDS011;17143;51.888;5.408;2022-08-07T15:07:01;2.60;;;1.50;;
30337;SDS011;17143;51.888;5.408;2022-08-07T15:22:03;3.30;;;2.10;;
30337;SDS011;17143;51.888;5.408;2022-08-07T15:37:07;3.53;;;2.20;;
30337;SDS011;17143;51.888;5.408;2022-08-07T15:52:10;2.47;;;2.03;;
30337;SDS011;17143;51.888;5.408;2022-08-07T16:07:13;2.13;;;1.70;;
30337;SDS011;17143;51.888;5.408;2022-08-07T16:22:28;3.97;;;1.70;;
30337;SDS011;17143;51.888;5.408;2022-08-07T16:37:56;1.50;;;1.40;;
30337;SDS011;17143;51.888;5.408;2022-08-07T16:53:20;2.23;;;1.50;;
30337;SDS011;17143;51.888;5.408;2022-08-07T17:08:36;4.90;;;1.77;;
30337;SDS011;17143;51.888;5.408;2022-08-07T17:23:47;4.10;;;1.43;;
30337;SDS011;17143;51.888;5.408;2022-08-07T17:38:55;5.20;;;2.03;;
30337;SDS011;17143;51.888;5.408;2022-08-07T17:54:06;7.40;;;2.30;;
30337;SDS011;17143;51.888;5.408;2022-08-07T18:09:15;2.83;;;1.87;;
30337;SDS011;17143;51.888;5.408;2022-08-07T18:24:23;2.93;;;2.00;;
30337;SDS011;17143;51.888;5.408;2022-08-07T18:39:32;5.97;;;2.20;;
30337;SDS011;17143;51.888;5.408;2022-08-07T18:54:50;4.20;;;2.20;;
30337;SDS011;17143;51.888;5.408;2022-08-07T19:10:02;3.10;;;2.30;;
30337;SDS011;17143;51.888;5.408;2022-08-07T19:25:11;3.43;;;2.43;;
30337;SDS011;17143;51.888;5.408;2022-08-07T19:40:13;6.03;;;2.27;;
30337;SDS011;17143;51.888;5.408;2022-08-07T19:55:18;3.27;;;2.20;;
30337;SDS011;17143;51.888;5.408;2022-08-07T20:10:24;4.17;;;2.20;;
30337;SDS011;17143;51.888;5.408;2022-08-07T20:25:29;5.13;;;2.67;;
30337;SDS011;17143;51.888;5.408;2022-08-07T20:40:37;3.87;;;2.80;;
30337;SDS011;17143;51.888;5.408;2022-08-07T20:55:44;4.37;;;2.87;;
30337;SDS011;17143;51.888;5.408;2022-08-07T21:10:51;5.13;;;3.40;;
30337;SDS011;17143;51.888;5.408;2022-08-07T21:26:00;5.00;;;2.83;;
30337;SDS011;17143;51.888;5.408;2022-08-07T21:41:08;4.60;;;3.83;;
30337;SDS011;17143;51.888;5.408;2022-08-07T21:56:22;5.57;;;3.90;;
30337;SDS011;17143;51.888;5.408;2022-08-07T22:11:28;5.57;;;4.03;;
30337;SDS011;17143;51.888;5.408;2022-08-07T22:26:36;7.27;;;4.40;;
30337;SDS011;17143;51.888;5.408;2022-08-07T22:41:45;8.43;;;4.73;;
30337;SDS011;17143;51.888;5.408;2022-08-07T22:56:56;13.13;;;5.57;;
30337;SDS011;17143;51.888;5.408;2022-08-07T23:12:14;12.30;;;6.03;;
30337;SDS011;17143;51.888;5.408;2022-08-07T23:27:34;7.63;;;5.83;;
30337;SDS011;17143;51.888;5.408;2022-08-07T23:42:52;9.40;;;6.10;;
30337;SDS011;17143;51.888;5.408;2022-08-07T23:58:01;11.27;;;6.60;;
